Terminal Aerodrome Forecast
Issued by NWS

Home | Current Version | Previous Version | Text Only | Print | Product List | Glossary On
Versions: 1 2 3 4 5 6 7 8 9 10 11 12 13 14
502
FTUS44 KEWX 200542
TAFSSF
TAF
KSSF 200542Z 2006/2106 05006KT P6SM BKN200
     FM201400 10011KT P6SM BKN050
     FM202000 12012KT P6SM BKN035
     FM210300 11010KT P6SM OVC015=

USA.gov is the U.S. government's official web portal to all federal, state and local government web resources and services.